sensor_id;sensor_type;location;lat;lon;timestamp;pressure;altitude;pressure_sealevel;temperature;humidity
58761;BME280;44529;47.464;19.014;2023-04-29T00:02:47;100138.44;;;11.68;93.20
58761;BME280;44529;47.464;19.014;2023-04-29T00:05:50;100145.94;;;11.62;94.89
58761;BME280;44529;47.464;19.014;2023-04-29T00:08:52;100139.88;;;11.65;93.89
58761;BME280;44529;47.464;19.014;2023-04-29T00:11:55;100144.97;;;11.58;93.65
58761;BME280;44529;47.464;19.014;2023-04-29T00:14:58;100140.38;;;11.50;93.53
58761;BME280;44529;47.464;19.014;2023-04-29T00:18:00;100139.13;;;11.48;91.68
58761;BME280;44529;47.464;19.014;2023-04-29T00:21:03;100129.88;;;11.66;89.03
58761;BME280;44529;47.464;19.014;2023-04-29T00:24:07;100130.16;;;11.64;86.99
58761;BME280;44529;47.464;19.014;2023-04-29T00:27:09;100134.00;;;11.63;87.54
58761;BME280;44529;47.464;19.014;2023-04-29T00:30:13;100127.31;;;11.61;86.55
58761;BME280;44529;47.464;19.014;2023-04-29T00:33:15;100127.31;;;11.61;90.49
58761;BME280;44529;47.464;19.014;2023-04-29T00:36:17;100119.81;;;11.58;90.54
58761;BME280;44529;47.464;19.014;2023-04-29T00:39:20;100127.16;;;11.57;90.59
58761;BME280;44529;47.464;19.014;2023-04-29T00:42:22;100123.47;;;11.62;90.17
58761;BME280;44529;47.464;19.014;2023-04-29T00:45:25;100130.34;;;11.59;90.00
58761;BME280;44529;47.464;19.014;2023-04-29T00:48:28;100132.56;;;11.57;90.05
58761;BME280;44529;47.464;19.014;2023-04-29T00:51:31;100133.69;;;11.56;90.38
58761;BME280;44529;47.464;19.014;2023-04-29T00:54:36;100141.00;;;11.56;90.86
58761;BME280;44529;47.464;19.014;2023-04-29T00:57:38;100136.69;;;11.63;87.53
58761;BME280;44529;47.464;19.014;2023-04-29T01:00:40;100135.78;;;11.59;85.53
58761;BME280;44529;47.464;19.014;2023-04-29T01:03:44;100137.03;;;11.62;86.43
58761;BME280;44529;47.464;19.014;2023-04-29T01:10:21;100129.69;;;11.62;86.66
58761;BME280;44529;47.464;19.014;2023-04-29T01:13:34;100129.69;;;11.62;86.56
58761;BME280;44529;47.464;19.014;2023-04-29T01:16:43;100131.94;;;11.60;86.78
58761;BME280;44529;47.464;19.014;2023-04-29T01:19:54;100129.84;;;11.57;88.82
58761;BME280;44529;47.464;19.014;2023-04-29T01:22:57;100136.41;;;11.56;87.25
58761;BME280;44529;47.464;19.014;2023-04-29T01:26:00;100134.50;;;11.48;87.60
58761;BME280;44529;47.464;19.014;2023-04-29T01:29:24;100129.25;;;11.43;87.90
58761;BME280;44529;47.464;19.014;2023-04-29T01:32:49;100134.47;;;11.39;87.99
58761;BME280;44529;47.464;19.014;2023-04-29T01:36:07;100129.09;;;11.31;89.04
58761;BME280;44529;47.464;19.014;2023-04-29T01:39:26;100130.38;;;11.33;88.07
58761;BME280;44529;47.464;19.014;2023-04-29T01:45:38;100120.50;;;11.29;88.40
58761;BME280;44529;47.464;19.014;2023-04-29T01:48:43;100120.00;;;11.27;89.00
58761;BME280;44529;47.464;19.014;2023-04-29T01:51:45;100124.81;;;11.21;88.08
58761;BME280;44529;47.464;19.014;2023-04-29T01:54:47;100115.56;;;11.22;88.13
58761;BME280;44529;47.464;19.014;2023-04-29T01:57:50;100115.25;;;11.15;86.04
58761;BME280;44529;47.464;19.014;2023-04-29T02:00:53;100120.00;;;11.18;85.20
58761;BME280;44529;47.464;19.014;2023-04-29T02:03:57;100121.44;;;11.16;85.24
58761;BME280;44529;47.464;19.014;2023-04-29T02:07:00;100124.16;;;11.16;84.41
58761;BME280;44529;47.464;19.014;2023-04-29T02:10:03;100124.16;;;11.16;81.93
58761;BME280;44529;47.464;19.014;2023-04-29T02:13:07;100116.34;;;11.14;82.92
58761;BME280;44529;47.464;19.014;2023-04-29T02:16:12;100120.00;;;11.09;82.33
58761;BME280;44529;47.464;19.014;2023-04-29T02:19:15;100117.63;;;11.08;80.91
58761;BME280;44529;47.464;19.014;2023-04-29T02:22:18;100117.31;;;11.09;80.38
58761;BME280;44529;47.464;19.014;2023-04-29T02:25:20;100126.06;;;11.15;80.49
58761;BME280;44529;47.464;19.014;2023-04-29T02:28:22;100118.44;;;11.08;80.41
58761;BME280;44529;47.464;19.014;2023-04-29T02:31:25;100114.94;;;11.08;78.69
58761;BME280;44529;47.464;19.014;2023-04-29T02:34:27;100117.00;;;11.02;80.44
58761;BME280;44529;47.464;19.014;2023-04-29T02:37:30;100113.97;;;11.04;79.38
58761;BME280;44529;47.464;19.014;2023-04-29T02:40:33;100112.50;;;11.06;78.95
58761;BME280;44529;47.464;19.014;2023-04-29T02:43:35;100111.09;;;11.09;77.74
58761;BME280;44529;47.464;19.014;2023-04-29T02:46:37;100110.31;;;11.08;75.10
58761;BME280;44529;47.464;19.014;2023-04-29T02:49:42;100101.22;;;11.04;77.42
58761;BME280;44529;47.464;19.014;2023-04-29T02:52:46;100095.16;;;11.07;77.28
58761;BME280;44529;47.464;19.014;2023-04-29T02:55:48;100098.19;;;10.97;76.23
58761;BME280;44529;47.464;19.014;2023-04-29T02:58:50;100099.16;;;11.10;76.39
58761;BME280;44529;47.464;19.014;2023-04-29T03:01:53;100104.56;;;11.10;75.19
58761;BME280;44529;47.464;19.014;2023-04-29T03:04:55;100101.87;;;11.10;75.41
58761;BME280;44529;47.464;19.014;2023-04-29T03:07:58;100109.97;;;11.10;77.06
58761;BME280;44529;47.464;19.014;2023-04-29T03:11:01;100107.44;;;11.05;75.39
58761;BME280;44529;47.464;19.014;2023-04-29T03:14:03;100105.06;;;11.03;76.80
58761;BME280;44529;47.464;19.014;2023-04-29T03:17:06;100102.03;;;11.05;75.49
58761;BME280;44529;47.464;19.014;2023-04-29T03:20:09;100098.34;;;11.01;73.83
58761;BME280;44529;47.464;19.014;2023-04-29T03:23:12;100102.66;;;11.02;74.15
58761;BME280;44529;47.464;19.014;2023-04-29T03:26:14;100100.91;;;10.97;74.99
58761;BME280;44529;47.464;19.014;2023-04-29T03:29:17;100106.31;;;10.97;73.80
58761;BME280;44529;47.464;19.014;2023-04-29T03:32:19;100099.31;;;10.96;73.41
58761;BME280;44529;47.464;19.014;2023-04-29T03:35:21;100108.56;;;10.95;73.01
58761;BME280;44529;47.464;19.014;2023-04-29T03:38:24;100108.22;;;10.97;74.35
58761;BME280;44529;47.464;19.014;2023-04-29T03:41:27;100110.59;;;10.98;74.79
58761;BME280;44529;47.464;19.014;2023-04-29T03:44:29;100115.41;;;11.01;72.75
58761;BME280;44529;47.464;19.014;2023-04-29T03:47:32;100111.06;;;11.00;72.33
58761;BME280;44529;47.464;19.014;2023-04-29T03:50:35;100107.44;;;10.96;73.29
58761;BME280;44529;47.464;19.014;2023-04-29T03:53:38;100124.59;;;10.92;73.47
58761;BME280;44529;47.464;19.014;2023-04-29T03:56:42;100128.25;;;10.87;73.72
58761;BME280;44529;47.464;19.014;2023-04-29T03:59:44;100128.09;;;10.92;72.73
58761;BME280;44529;47.464;19.014;2023-04-29T04:02:51;100134.50;;;10.96;71.89
58761;BME280;44529;47.464;19.014;2023-04-29T04:05:54;100139.25;;;10.99;72.50
58761;BME280;44529;47.464;19.014;2023-04-29T04:08:57;100135.44;;;11.00;73.27
58761;BME280;44529;47.464;19.014;2023-04-29T04:11:59;100139.44;;;11.03;71.86
58761;BME280;44529;47.464;19.014;2023-04-29T04:15:02;100138.00;;;11.05;72.66
58761;BME280;44529;47.464;19.014;2023-04-29T04:18:05;100144.03;;;11.02;72.09
58761;BME280;44529;47.464;19.014;2023-04-29T04:21:08;100138.13;;;10.92;74.16
58761;BME280;44529;47.464;19.014;2023-04-29T04:24:12;100138.31;;;10.95;75.51
58761;BME280;44529;47.464;19.014;2023-04-29T04:27:14;100137.34;;;11.00;72.32
58761;BME280;44529;47.464;19.014;2023-04-29T04:30:17;100137.50;;;11.03;74.15
58761;BME280;44529;47.464;19.014;2023-04-29T04:33:19;100144.84;;;11.03;72.15
58761;BME280;44529;47.464;19.014;2023-04-29T04:36:22;100143.06;;;11.07;72.87
58761;BME280;44529;47.464;19.014;2023-04-29T04:39:25;100149.78;;;11.09;72.47
58761;BME280;44529;47.464;19.014;2023-04-29T04:42:28;100141.81;;;11.13;71.86
58761;BME280;44529;47.464;19.014;2023-04-29T04:45:31;100138.31;;;11.12;73.63
58761;BME280;44529;47.464;19.014;2023-04-29T04:48:33;100139.91;;;11.13;72.33
58761;BME280;44529;47.464;19.014;2023-04-29T04:51:45;100140.69;;;11.14;73.10
58761;BME280;44529;47.464;19.014;2023-04-29T04:54:48;100136.09;;;11.15;72.69
58761;BME280;44529;47.464;19.014;2023-04-29T04:57:55;100141.81;;;11.13;70.92
58761;BME280;44529;47.464;19.014;2023-04-29T05:00:59;100137.19;;;11.13;72.12
58761;BME280;44529;47.464;19.014;2023-04-29T05:04:02;100127.16;;;11.05;74.59
58761;BME280;44529;47.464;19.014;2023-04-29T05:07:05;100126.38;;;11.05;73.12
58761;BME280;44529;47.464;19.014;2023-04-29T05:10:08;100119.50;;;11.07;73.99
58761;BME280;44529;47.464;19.014;2023-04-29T05:13:11;100132.59;;;11.23;72.02
58761;BME280;44529;47.464;19.014;2023-04-29T05:16:14;100133.38;;;11.32;72.44
58761;BME280;44529;47.464;19.014;2023-04-29T05:19:19;100137.03;;;11.36;70.86
58761;BME280;44529;47.464;19.014;2023-04-29T05:22:21;100129.41;;;11.38;72.52
58761;BME280;44529;47.464;19.014;2023-04-29T05:25:23;100137.69;;;11.42;72.68
58761;BME280;44529;47.464;19.014;2023-04-29T05:28:26;100133.22;;;11.37;70.54
58761;BME280;44529;47.464;19.014;2023-04-29T05:31:30;100134.00;;;11.37;72.06
58761;BME280;44529;47.464;19.014;2023-04-29T05:34:35;100134.81;;;11.38;71.51
58761;BME280;44529;47.464;19.014;2023-04-29T05:37:37;100133.22;;;11.37;70.08
58761;BME280;44529;47.464;19.014;2023-04-29T05:40:40;100130.66;;;11.32;71.46
58761;BME280;44529;47.464;19.014;2023-04-29T05:43:44;100139.91;;;11.31;72.90
58761;BME280;44529;47.464;19.014;2023-04-29T05:46:47;100138.78;;;11.32;73.81
58761;BME280;44529;47.464;19.014;2023-04-29T05:49:50;100149.16;;;11.30;71.62
58761;BME280;44529;47.464;19.014;2023-04-29T05:52:53;100156.81;;;11.28;71.30
58761;BME280;44529;47.464;19.014;2023-04-29T05:55:58;100151.84;;;11.30;71.51
58761;BME280;44529;47.464;19.014;2023-04-29T05:59:00;100146.63;;;11.33;71.06
58761;BME280;44529;47.464;19.014;2023-04-29T06:02:03;100149.63;;;11.32;74.16
58761;BME280;44529;47.464;19.014;2023-04-29T06:05:06;100153.44;;;11.39;72.65
58761;BME280;44529;47.464;19.014;2023-04-29T06:08:09;100153.28;;;11.45;70.79
58761;BME280;44529;47.464;19.014;2023-04-29T06:11:15;100151.84;;;11.56;70.47
58761;BME280;44529;47.464;19.014;2023-04-29T06:14:17;100146.41;;;11.64;70.43
58761;BME280;44529;47.464;19.014;2023-04-29T06:17:20;100143.06;;;11.68;71.98
58761;BME280;44529;47.464;19.014;2023-04-29T06:20:22;100155.97;;;11.79;68.51
58761;BME280;44529;47.464;19.014;2023-04-29T06:23:25;100150.09;;;11.86;65.60
58761;BME280;44529;47.464;19.014;2023-04-29T06:26:27;100162.97;;;11.89;64.32
58761;BME280;44529;47.464;19.014;2023-04-29T06:29:30;100157.88;;;11.87;68.28
58761;BME280;44529;47.464;19.014;2023-04-29T06:32:32;100158.84;;;11.83;66.41
58761;BME280;44529;47.464;19.014;2023-04-29T06:35:38;100161.09;;;11.81;66.64
58761;BME280;44529;47.464;19.014;2023-04-29T06:38:41;100162.84;;;11.85;64.81
58761;BME280;44529;47.464;19.014;2023-04-29T06:41:45;100162.03;;;11.85;65.45
58761;BME280;44529;47.464;19.014;2023-04-29T06:44:47;100160.28;;;11.89;64.26
58761;BME280;44529;47.464;19.014;2023-04-29T06:47:52;100159.94;;;11.99;66.36
58761;BME280;44529;47.464;19.014;2023-04-29T06:50:57;100150.31;;;12.10;66.42
58761;BME280;44529;47.464;19.014;2023-04-29T06:54:00;100150.03;;;12.12;66.55
58761;BME280;44529;47.464;19.014;2023-04-29T06:57:02;100157.50;;;12.15;63.78
58761;BME280;44529;47.464;19.014;2023-04-29T07:00:05;100159.88;;;12.16;66.87
58761;BME280;44529;47.464;19.014;2023-04-29T07:03:07;100162.13;;;12.14;66.14
58761;BME280;44529;47.464;19.014;2023-04-29T07:06:11;100164.88;;;12.06;66.59
58761;BME280;44529;47.464;19.014;2023-04-29T07:09:13;100155.13;;;12.13;65.67
58761;BME280;44529;47.464;19.014;2023-04-29T07:12:16;100159.56;;;12.09;67.20
58761;BME280;44529;47.464;19.014;2023-04-29T07:15:18;100159.56;;;12.09;65.23
58761;BME280;44529;47.464;19.014;2023-04-29T07:18:20;100156.25;;;12.04;66.69
58761;BME280;44529;47.464;19.014;2023-04-29T07:21:23;100155.28;;;12.08;68.83
58761;BME280;44529;47.464;19.014;2023-04-29T07:24:25;100160.38;;;12.10;66.51
58761;BME280;44529;47.464;19.014;2023-04-29T07:27:27;100165.00;;;12.09;65.48
58761;BME280;44529;47.464;19.014;2023-04-29T07:30:32;100164.50;;;12.16;65.85
58761;BME280;44529;47.464;19.014;2023-04-29T07:33:34;100166.25;;;12.20;61.80
58761;BME280;44529;47.464;19.014;2023-04-29T07:36:37;100165.41;;;12.29;63.52
58761;BME280;44529;47.464;19.014;2023-04-29T07:39:40;100167.50;;;12.32;64.68
58761;BME280;44529;47.464;19.014;2023-04-29T07:42:44;100153.56;;;12.42;64.89
58761;BME280;44529;47.464;19.014;2023-04-29T07:45:47;100154.97;;;12.48;64.55
58761;BME280;44529;47.464;19.014;2023-04-29T07:48:49;100153.03;;;12.57;64.20
58761;BME280;44529;47.464;19.014;2023-04-29T07:51:53;100162.47;;;12.81;62.27
58761;BME280;44529;47.464;19.014;2023-04-29T07:54:55;100161.28;;;13.41;62.30
58761;BME280;44529;47.464;19.014;2023-04-29T07:57:57;100168.22;;;13.83;60.33
58761;BME280;44529;47.464;19.014;2023-04-29T08:01:09;100162.53;;;14.09;58.84
58761;BME280;44529;47.464;19.014;2023-04-29T08:04:14;100177.88;;;14.26;57.20
58761;BME280;44529;47.464;19.014;2023-04-29T08:07:17;100174.34;;;14.14;57.99
58761;BME280;44529;47.464;19.014;2023-04-29T08:10:19;100172.50;;;14.05;54.78
58761;BME280;44529;47.464;19.014;2023-04-29T08:13:24;100179.50;;;13.94;58.36
58761;BME280;44529;47.464;19.014;2023-04-29T08:16:27;100180.69;;;13.85;58.41
58761;BME280;44529;47.464;19.014;2023-04-29T08:19:29;100182.13;;;13.70;59.01
58761;BME280;44529;47.464;19.014;2023-04-29T08:22:32;100178.53;;;13.78;59.26
58761;BME280;44529;47.464;19.014;2023-04-29T08:25:34;100173.22;;;13.81;58.15
58761;BME280;44529;47.464;19.014;2023-04-29T08:28:38;100182.16;;;13.82;59.51
58761;BME280;44529;47.464;19.014;2023-04-29T08:31:40;100175.97;;;13.94;58.55
58761;BME280;44529;47.464;19.014;2023-04-29T08:34:42;100174.19;;;14.10;57.51
58761;BME280;44529;47.464;19.014;2023-04-29T08:37:45;100173.34;;;14.30;57.58
58761;BME280;44529;47.464;19.014;2023-04-29T08:40:48;100172.72;;;14.58;55.69
58761;BME280;44529;47.464;19.014;2023-04-29T08:43:51;100174.88;;;14.77;55.10
58761;BME280;44529;47.464;19.014;2023-04-29T08:46:54;100168.69;;;15.57;51.59
58761;BME280;44529;47.464;19.014;2023-04-29T08:50:01;100172.00;;;16.22;49.81
58761;BME280;44529;47.464;19.014;2023-04-29T08:53:06;100170.25;;;16.61;48.42
58761;BME280;44529;47.464;19.014;2023-04-29T08:56:15;100171.16;;;17.55;46.86
58761;BME280;44529;47.464;19.014;2023-04-29T08:59:22;100179.03;;;17.76;46.71
58761;BME280;44529;47.464;19.014;2023-04-29T09:02:24;100184.75;;;17.71;45.04
58761;BME280;44529;47.464;19.014;2023-04-29T09:05:27;100184.75;;;17.32;47.54
58761;BME280;44529;47.464;19.014;2023-04-29T09:08:31;100185.41;;;16.90;49.03
58761;BME280;44529;47.464;19.014;2023-04-29T09:11:35;100181.53;;;16.60;47.47
58761;BME280;44529;47.464;19.014;2023-04-29T09:14:38;100175.09;;;16.52;47.14
58761;BME280;44529;47.464;19.014;2023-04-29T09:17:45;100181.44;;;16.72;46.46
58761;BME280;44529;47.464;19.014;2023-04-29T09:20:47;100177.41;;;16.50;47.21
58761;BME280;44529;47.464;19.014;2023-04-29T09:23:52;100184.69;;;16.30;49.14
58761;BME280;44529;47.464;19.014;2023-04-29T09:26:55;100179.94;;;16.27;48.01
58761;BME280;44529;47.464;19.014;2023-04-29T09:30:00;100185.66;;;16.22;48.29
58761;BME280;44529;47.464;19.014;2023-04-29T09:33:07;100181.06;;;16.42;48.79
58761;BME280;44529;47.464;19.014;2023-04-29T09:36:10;100178.44;;;16.45;49.73
58761;BME280;44529;47.464;19.014;2023-04-29T09:39:17;100176.16;;;16.63;48.59
58761;BME280;44529;47.464;19.014;2023-04-29T09:42:20;100181.44;;;16.72;49.15
58761;BME280;44529;47.464;19.014;2023-04-29T09:45:35;100179.03;;;16.86;46.62
58761;BME280;44529;47.464;19.014;2023-04-29T09:48:38;100185.41;;;16.90;44.96
58761;BME280;44529;47.464;19.014;2023-04-29T09:51:51;100176.34;;;16.70;45.35
58761;BME280;44529;47.464;19.014;2023-04-29T09:55:03;100184.81;;;16.81;46.81
58761;BME280;44529;47.464;19.014;2023-04-29T09:58:06;100176.16;;;16.79;46.75
58761;BME280;44529;47.464;19.014;2023-04-29T10:01:08;100175.56;;;16.70;47.63
58761;BME280;44529;47.464;19.014;2023-04-29T10:04:12;100171.22;;;16.69;46.64
58761;BME280;44529;47.464;19.014;2023-04-29T10:07:17;100169.75;;;16.56;45.17
58761;BME280;44529;47.464;19.014;2023-04-29T10:10:21;100165.59;;;16.62;47.09
58761;BME280;44529;47.464;19.014;2023-04-29T10:13:24;100162.69;;;16.70;46.03
58761;BME280;44529;47.464;19.014;2023-04-29T10:16:29;100172.25;;;16.96;44.77
58761;BME280;44529;47.464;19.014;2023-04-29T10:20:04;100159.53;;;17.03;44.47
58761;BME280;44529;47.464;19.014;2023-04-29T10:23:09;100162.44;;;17.11;46.67
58761;BME280;44529;47.464;19.014;2023-04-29T10:26:12;100169.00;;;16.90;46.84
58761;BME280;44529;47.464;19.014;2023-04-29T10:29:16;100167.28;;;16.82;47.16
58761;BME280;44529;47.464;19.014;2023-04-29T10:32:20;100171.56;;;16.83;44.05
58761;BME280;44529;47.464;19.014;2023-04-29T10:35:23;100167.59;;;16.81;45.91
58761;BME280;44529;47.464;19.014;2023-04-29T10:38:39;100169.19;;;16.66;44.40
58761;BME280;44529;47.464;19.014;2023-04-29T10:41:44;100153.94;;;16.81;43.31
58761;BME280;44529;47.464;19.014;2023-04-29T10:48:25;100142.44;;;17.26;42.97
58761;BME280;44529;47.464;19.014;2023-04-29T10:51:45;100130.81;;;17.29;41.70
58761;BME280;44529;47.464;19.014;2023-04-29T10:55:03;100126.50;;;17.47;42.52
58761;BME280;44529;47.464;19.014;2023-04-29T11:01:46;100117.78;;;17.80;43.42
58761;BME280;44529;47.464;19.014;2023-04-29T11:05:11;100114.19;;;17.99;42.78
58761;BME280;44529;47.464;19.014;2023-04-29T11:08:22;100096.09;;;18.40;43.12
58761;BME280;44529;47.464;19.014;2023-04-29T11:11:25;100092.16;;;18.38;41.19
58761;BME280;44529;47.464;19.014;2023-04-29T11:14:40;100090.59;;;18.63;40.70
58761;BME280;44529;47.464;19.014;2023-04-29T11:17:45;100088.31;;;18.43;40.85
58761;BME280;44529;47.464;19.014;2023-04-29T11:24:05;100082.28;;;18.83;42.49
58761;BME280;44529;47.464;19.014;2023-04-29T11:27:08;100080.03;;;18.65;40.52
58761;BME280;44529;47.464;19.014;2023-04-29T11:30:11;100087.66;;;18.49;42.01
58761;BME280;44529;47.464;19.014;2023-04-29T11:33:14;100087.09;;;18.40;41.86
58761;BME280;44529;47.464;19.014;2023-04-29T11:36:17;100087.09;;;18.40;42.16
58761;BME280;44529;47.464;19.014;2023-04-29T11:39:19;100077.91;;;18.29;40.95
58761;BME280;44529;47.464;19.014;2023-04-29T11:42:22;100083.41;;;18.29;40.59
58761;BME280;44529;47.464;19.014;2023-04-29T11:45:25;100086.62;;;18.34;43.55
58761;BME280;44529;47.464;19.014;2023-04-29T11:48:27;100081.31;;;18.45;41.79
58761;BME280;44529;47.464;19.014;2023-04-29T11:51:31;100074.00;;;18.53;42.10
58761;BME280;44529;47.464;19.014;2023-04-29T11:54:33;100076.72;;;18.53;41.41
58761;BME280;44529;47.464;19.014;2023-04-29T11:57:37;100074.87;;;18.60;43.61
58761;BME280;44529;47.464;19.014;2023-04-29T12:00:40;100072.41;;;18.52;41.86
58761;BME280;44529;47.464;19.014;2023-04-29T12:03:44;100083.31;;;18.48;43.62
58761;BME280;44529;47.464;19.014;2023-04-29T12:06:50;100082.06;;;18.42;42.60
58761;BME280;44529;47.464;19.014;2023-04-29T12:09:54;100081.00;;;18.77;41.37
58761;BME280;44529;47.464;19.014;2023-04-29T12:12:57;100085.03;;;18.86;40.89
58761;BME280;44529;47.464;19.014;2023-04-29T12:16:00;100078.59;;;18.72;41.28
58761;BME280;44529;47.464;19.014;2023-04-29T12:19:03;100078.38;;;18.57;42.10
58761;BME280;44529;47.464;19.014;2023-04-29T12:22:06;100075.53;;;18.50;42.66
58761;BME280;44529;47.464;19.014;2023-04-29T12:25:09;100073.63;;;18.54;42.53
58761;BME280;44529;47.464;19.014;2023-04-29T12:28:12;100065.06;;;18.56;41.03
58761;BME280;44529;47.464;19.014;2023-04-29T12:31:14;100055.94;;;18.75;42.11
58761;BME280;44529;47.464;19.014;2023-04-29T12:34:32;100061.50;;;19.12;41.38
58761;BME280;44529;47.464;19.014;2023-04-29T12:37:34;100059.47;;;19.39;41.05
58761;BME280;44529;47.464;19.014;2023-04-29T12:40:37;100050.72;;;19.63;40.96
58761;BME280;44529;47.464;19.014;2023-04-29T12:43:40;100047.53;;;19.58;41.41
58761;BME280;44529;47.464;19.014;2023-04-29T12:46:43;100043.50;;;19.48;40.38
58761;BME280;44529;47.464;19.014;2023-04-29T12:49:46;100051.97;;;19.36;39.55
58761;BME280;44529;47.464;19.014;2023-04-29T12:52:49;100049.41;;;19.16;41.39
58761;BME280;44529;47.464;19.014;2023-04-29T12:55:52;100032.41;;;19.00;41.10
58761;BME280;44529;47.464;19.014;2023-04-29T12:58:55;100029.81;;;19.14;42.17
58761;BME280;44529;47.464;19.014;2023-04-29T13:01:58;100032.75;;;19.32;42.47
58761;BME280;44529;47.464;19.014;2023-04-29T13:05:01;100031.62;;;19.37;42.72
58761;BME280;44529;47.464;19.014;2023-04-29T13:08:03;100024.69;;;19.46;40.98
58761;BME280;44529;47.464;19.014;2023-04-29T13:11:08;100015.81;;;19.60;40.49
58761;BME280;44529;47.464;19.014;2023-04-29T13:14:10;100011.69;;;19.81;39.48
58761;BME280;44529;47.464;19.014;2023-04-29T13:17:12;100016.47;;;19.91;38.52
58761;BME280;44529;47.464;19.014;2023-04-29T13:20:15;100016.22;;;19.62;39.64
58761;BME280;44529;47.464;19.014;2023-04-29T13:23:17;100005.16;;;19.55;40.30
58761;BME280;44529;47.464;19.014;2023-04-29T13:26:20;100009.69;;;19.37;41.02
58761;BME280;44529;47.464;19.014;2023-04-29T13:29:22;100003.13;;;19.45;40.92
58761;BME280;44529;47.464;19.014;2023-04-29T13:32:25;100000.72;;;19.43;41.09
58761;BME280;44529;47.464;19.014;2023-04-29T13:35:28;99996.75;;;19.37;41.35
58761;BME280;44529;47.464;19.014;2023-04-29T13:38:30;99991.63;;;19.32;41.13
58761;BME280;44529;47.464;19.014;2023-04-29T13:41:33;99992.50;;;19.40;40.16
58761;BME280;44529;47.464;19.014;2023-04-29T13:44:36;99985.56;;;19.57;40.59
58761;BME280;44529;47.464;19.014;2023-04-29T13:47:59;99972.47;;;19.80;41.43
58761;BME280;44529;47.464;19.014;2023-04-29T13:51:09;99968.66;;;19.92;42.34
58761;BME280;44529;47.464;19.014;2023-04-29T13:54:15;99966.34;;;20.01;41.87
58761;BME280;44529;47.464;19.014;2023-04-29T13:57:20;99969.56;;;20.10;41.13
58761;BME280;44529;47.464;19.014;2023-04-29T14:00:26;99978.59;;;20.14;40.95
58761;BME280;44529;47.464;19.014;2023-04-29T14:03:48;99981.16;;;19.86;42.25
58761;BME280;44529;47.464;19.014;2023-04-29T14:06:51;99977.06;;;19.65;42.94
58761;BME280;44529;47.464;19.014;2023-04-29T14:09:53;99982.31;;;19.40;42.93
58761;BME280;44529;47.464;19.014;2023-04-29T14:12:56;99989.62;;;19.29;42.40
58761;BME280;44529;47.464;19.014;2023-04-29T14:15:58;99977.75;;;19.14;41.88
58761;BME280;44529;47.464;19.014;2023-04-29T14:19:03;99977.31;;;19.12;41.65
58761;BME280;44529;47.464;19.014;2023-04-29T14:22:05;99972.72;;;19.24;42.36
58761;BME280;44529;47.464;19.014;2023-04-29T14:25:07;99972.41;;;19.29;41.37
58761;BME280;44529;47.464;19.014;2023-04-29T14:28:10;99963.25;;;19.14;42.10
58761;BME280;44529;47.464;19.014;2023-04-29T14:31:13;99961.56;;;19.02;41.95
58761;BME280;44529;47.464;19.014;2023-04-29T14:34:16;99959.53;;;18.96;41.56
58761;BME280;44529;47.464;19.014;2023-04-29T14:37:20;99952.00;;;18.89;42.22
58761;BME280;44529;47.464;19.014;2023-04-29T14:40:22;99953.09;;;18.81;42.65
58761;BME280;44529;47.464;19.014;2023-04-29T14:43:25;99955.31;;;18.72;44.10
58761;BME280;44529;47.464;19.014;2023-04-29T14:46:27;99948.66;;;18.69;43.55
58761;BME280;44529;47.464;19.014;2023-04-29T14:49:30;99952.19;;;18.70;43.76
58761;BME280;44529;47.464;19.014;2023-04-29T14:52:33;99955.31;;;18.72;44.43
58761;BME280;44529;47.464;19.014;2023-04-29T14:55:35;99961.97;;;18.71;43.87
58761;BME280;44529;47.464;19.014;2023-04-29T14:58:37;99960.44;;;18.73;44.04
58761;BME280;44529;47.464;19.014;2023-04-29T15:01:40;99963.94;;;18.70;45.35
58761;BME280;44529;47.464;19.014;2023-04-29T15:04:42;99966.00;;;18.80;43.29
58761;BME280;44529;47.464;19.014;2023-04-29T15:07:47;99965.13;;;18.73;43.15
58761;BME280;44529;47.464;19.014;2023-04-29T15:10:49;99964.00;;;18.77;42.82
58761;BME280;44529;47.464;19.014;2023-04-29T15:13:51;99963.37;;;19.28;42.36
58761;BME280;44529;47.464;19.014;2023-04-29T15:16:54;99961.88;;;19.34;42.73
58761;BME280;44529;47.464;19.014;2023-04-29T15:19:56;99957.97;;;19.35;42.78
58761;BME280;44529;47.464;19.014;2023-04-29T15:22:58;99958.62;;;19.21;43.46
58761;BME280;44529;47.464;19.014;2023-04-29T15:26:01;99960.06;;;19.08;43.73
58761;BME280;44529;47.464;19.014;2023-04-29T15:29:03;99959.84;;;18.90;43.45
58761;BME280;44529;47.464;19.014;2023-04-29T15:32:05;99962.06;;;18.78;42.97
58761;BME280;44529;47.464;19.014;2023-04-29T15:35:08;99951.84;;;18.75;43.54
58761;BME280;44529;47.464;19.014;2023-04-29T15:38:10;99954.84;;;18.66;44.13
58761;BME280;44529;47.464;19.014;2023-04-29T15:41:13;99952.41;;;18.57;44.48
58761;BME280;44529;47.464;19.014;2023-04-29T15:44:15;99950.44;;;18.58;44.05
58761;BME280;44529;47.464;19.014;2023-04-29T15:47:18;99955.31;;;18.72;44.67
58761;BME280;44529;47.464;19.014;2023-04-29T15:50:20;99950.78;;;18.86;44.09
58761;BME280;44529;47.464;19.014;2023-04-29T15:53:22;99935.97;;;18.87;43.33
58761;BME280;44529;47.464;19.014;2023-04-29T15:56:25;99943.22;;;18.73;43.73
58761;BME280;44529;47.464;19.014;2023-04-29T15:59:27;99940.78;;;18.67;45.16
58761;BME280;44529;47.464;19.014;2023-04-29T16:02:30;99934.78;;;18.58;45.27
58761;BME280;44529;47.464;19.014;2023-04-29T16:05:33;99931.28;;;18.58;45.40
58761;BME280;44529;47.464;19.014;2023-04-29T16:08:35;99929.78;;;18.64;45.03